Flight Track Log - Related Links

Times and Time Zones

All times are in EDT time to prevent confusion due to time zone crossing. See the N123AD flight status page for this flight to view local times or setup timezone preferences in your user account.

Time Position Orientation Groundspeed Altitude Reporting Facility
EDT Latitude Longitude Course Direction KTS MPH feet Rate Location/Type
Wed 11:28:54 AM 41.3500 -73.5167 236° Southwest 141 162 2,900  Level New York TRACON
Wed 11:29:54 AM 41.3000 -73.5500 207° Southwest 187 215 4,500 2,050 Climbing New York TRACON
Wed 11:30:54 AM 41.2833 -73.6167 252° West 178 205 7,000 1,250 Climbing New York TRACON
Wed 11:31:54 AM 41.2500 -73.6833 236° Southwest 244 281 7,000  Level New York TRACON
Wed 11:32:54 AM 41.2000 -73.7500 225° Southwest 256 295 7,000  Level New York TRACON
Wed 11:33:54 AM 41.1667 -73.8333 242° Southwest 249 287 7,000 950 Level New York TRACON
Wed 11:34:00 AM 41.1480 -73.8873 236° Southwest  Level FlightAware Approximate
Wed 11:34:54 AM 41.1167 -73.9000 225° Southwest 217 250 8,900  Level New York TRACON
Wed 11:35:54 AM 41.0667 -73.9500 217° Southwest 256 295 9,000 550 Climbing New York TRACON
Wed 11:36:54 AM 41.0000 -73.9833 201° Southwest 246 283 10,000 500 Climbing New York TRACON
Wed 11:37:54 AM 40.9333 -74.0167 201° Southwest 267 307 10,000  Level New York TRACON
Wed 11:38:54 AM 40.8667 -74.0667 210° Southwest 260 299 10,000 400 Level New York TRACON
Wed 11:39:54 AM 40.8500 -74.1500 255° West 245 282 10,800 1,000 Climbing New York TRACON
Wed 11:40:54 AM 40.8167 -74.2333 242° Southwest 244 281 12,000 1,968 Climbing New York TRACON
Wed 11:43:03 AM 40.7733 -74.3744 248° West 191 220 17,000 1,587 Climbing New York Center
Wed 11:44:03 AM 40.7503 -74.4417 246° West 200 230 17,000  Level New York Center
Wed 11:45:04 AM 40.7206 -74.5306 246° West 255 293 17,000 645 Level New York Center
Wed 11:46:04 AM 40.6864 -74.6217 244° Southwest 262 302 18,300 1,339 Climbing New York Center
Wed 11:47:05 AM 40.6614 -74.6858 243° Southwest 252 290 19,700 1,412 Climbing New York Center
Wed 11:48:03 AM 40.6358 -74.7608 246° West 234 269 21,100 1,462 Climbing New York Center
Wed 11:49:04 AM 40.6106 -74.8278 244° Southwest 229 264 22,600 1,488 Climbing New York Center
Wed 11:50:04 AM 40.5875 -74.8947 246° West 212 244 24,100 1,438 Climbing New York Center
Wed 11:51:05 AM 40.5644 -74.9589 245° Southwest 207 238 25,500 1,200 Climbing New York Center
Wed 11:52:04 AM 40.5433 -75.0258 247° West 207 238 26,500 1,008 Climbing New York Center
Wed 11:53:04 AM 40.5178 -75.0953 244° Southwest 213 245 27,500 992 Climbing New York Center
Wed 11:54:05 AM 40.4800 -75.1558 231° Southwest 213 245 28,500 1,008 Climbing New York Center
Wed 11:55:03 AM 40.4444 -75.2189 233° Southwest 219 252 29,500 1,017 Climbing New York Center
Wed 11:56:03 AM 40.4067 -75.2792 231° Southwest 219 252 30,500 992 Climbing New York Center
Wed 11:57:04 AM 40.3647 -75.3417 229° Southwest 219 252 31,500 992 Climbing New York Center
Wed 11:58:04 AM 40.3269 -75.3992 229° Southwest 219 252 32,500 744 Climbing New York Center
Wed 11:59:05 AM 40.2850 -75.4617 229° Southwest 224 258 33,000 504 Climbing New York Center
Wed 12:00:03 PM 40.2406 -75.5294 229° Southwest 235 270 33,500 508 Climbing New York Center
Wed 12:01:03 PM 40.1961 -75.5997 230° Southwest 247 284 34,000 500 Climbing New York Center
Wed 12:02:03 PM 40.1494 -75.6697 229° Southwest 252 290 34,500 496 Climbing New York Center
Wed 12:03:04 PM 40.1025 -75.7425 230° Southwest 258 297 35,000 488 Climbing New York Center
Wed 12:04:06 PM 40.0536 -75.8150 229° Southwest 265 305 35,500 497 Climbing New York Center
Wed 12:06:17 PM 39.9483 -75.9731 229° Southwest 262 302 36,600 503 Climbing Washington Center
Wed 12:07:17 PM 39.9025 -76.0431 230° Southwest 267 307 37,100 508 Climbing Washington Center
Wed 12:08:15 PM 39.8625 -76.1214 236° Southwest 267 307 37,600 504 Climbing Washington Center
Wed 12:09:16 PM 39.8328 -76.2075 246° West 261 300 38,100 504 Climbing Washington Center
Wed 12:10:14 PM 39.8011 -76.2911 244° Southwest 261 300 38,600 504 Climbing Washington Center
Wed 12:11:15 PM 39.7653 -76.3717 240° Southwest 256 295 39,100 492 Climbing Washington Center
Wed 12:12:16 PM 39.7169 -76.4331 224° Southwest 251 289 39,600 443 Climbing Washington Center
Wed 12:13:17 PM 39.6686 -76.4944 224° Southwest 246 283 40,000 198 Climbing Washington Center
Wed 12:14:17 PM 39.6139 -76.5558 221° Southwest 253 291 40,000  Level Washington Center
Wed 12:15:16 PM 39.5592 -76.6250 224° Southwest 259 298 40,000  Level Washington Center
Wed 12:16:16 PM 39.5044 -76.6942 224° Southwest 273 314 40,000  Level Washington Center
Wed 12:17:17 PM 39.4453 -76.7633 222° Southwest 279 321 40,000  Level Washington Center
Wed 12:18:15 PM 39.3844 -76.8267 219° Southwest 284 327 40,000  Level Washington Center
Wed 12:19:15 PM 39.3211 -76.8875 217° Southwest 289 333 40,000  Level Washington Center
Wed 12:20:16 PM 39.2581 -76.9533 219° Southwest 289 333 40,000  Level Washington Center
Wed 12:21:17 PM 39.1947 -77.0136 216° Southwest 289 333 40,000  Level Washington Center
Wed 12:22:17 PM 39.1314 -77.0794 219° Southwest 289 333 40,000  Level Washington Center
Wed 12:23:16 PM 39.0661 -77.1422 217° Southwest 289 333 40,000  Level Washington Center
Wed 12:24:17 PM 38.9964 -77.2103 217° Southwest 294 338 40,000  Level Washington Center
Wed 12:25:15 PM 38.9372 -77.2703 218° Southwest 294 338 40,000  Level Washington Center
Wed 12:26:16 PM 38.8694 -77.3300 214° Southwest 294 338 40,000  Level Washington Center
Wed 12:27:16 PM 38.8061 -77.3925 218° Southwest 294 338 40,000  Level Washington Center
Wed 12:28:17 PM 38.7383 -77.4572 217° Southwest 294 338 40,000  Level Washington Center
Wed 12:29:15 PM 38.6728 -77.5222 218° Southwest 294 338 40,000  Level Washington Center
Wed 12:30:16 PM 38.6092 -77.5897 220° Southwest 294 338 40,000  Level Washington Center
Wed 12:31:17 PM 38.5350 -77.6592 216° Southwest 299 344 40,000  Level Washington Center
Wed 12:32:15 PM 38.4714 -77.7239 219° Southwest 299 344 40,000  Level Washington Center
Wed 12:33:16 PM 38.4056 -77.7881 217° Southwest 299 344 40,000  Level Washington Center
Wed 12:34:17 PM 38.3397 -77.8525 218° Southwest 299 344 40,000  Level Washington Center
Wed 12:35:15 PM 38.2739 -77.9139 216° Southwest 299 344 40,000  Level Washington Center
Wed 12:36:16 PM 38.2081 -77.9778 217° Southwest 299 344 40,000 -246 Level Washington Center
Wed 12:37:17 PM 38.1378 -78.0444 217° Southwest 304 350 39,500 -496 Descending Washington Center
Wed 12:38:17 PM 38.0675 -78.1133 218° Southwest 314 361 39,000 -508 Descending Washington Center
Wed 12:39:15 PM 37.9994 -78.1742 215° Southwest 319 367 38,500 -504 Descending Washington Center
Wed 12:40:16 PM 37.9397 -78.2381 220° Southwest 319 367 38,000 -446 Descending Washington Center
Wed 12:41:16 PM 37.8672 -78.3039 216° Southwest 319 367 37,600 -496 Descending Washington Center
Wed 12:42:17 PM 37.7747 -78.3372 196° South 314 361 37,000 -843 Descending Washington Center
Wed 12:43:17 PM 37.6906 -78.3736 199° South 314 361 35,900 -1,220 Descending Washington Center
Wed 12:44:15 PM 37.6061 -78.4097 199° South 319 367 34,600 -1,361 Descending Washington Center
Wed 12:45:16 PM 37.5219 -78.4433 198° South 319 367 33,200 -1,426 Descending Washington Center
Wed 12:46:17 PM 37.4397 -78.4822 201° Southwest 319 367 31,700 -1,438 Descending Washington Center
Wed 12:47:17 PM 37.3617 -78.5131 197° South 325 374 30,300 -1,475 Descending Washington Center
Wed 12:48:15 PM 37.2753 -78.5517 200° South 330 380 28,800 -1,160 Descending Washington Center
Wed 12:49:16 PM 37.1911 -78.5850 198° South 330 380 28,000 -393 Descending Washington Center
Wed 12:50:17 PM 37.1131 -78.6208 200° South 320 368 28,000 -298 Level Washington Center
Wed 12:51:17 PM 37.0325 -78.6672 205° Southwest 306 352 27,400 -559 Descending Washington Center
Wed 12:52:15 PM 36.9742 -78.7428 226° Southwest 293 337 26,900 -508 Descending Washington Center
Wed 12:53:15 PM 36.9042 -78.7894 208° Southwest 299 344 26,400 -446 Descending Washington Center
Wed 12:54:16 PM 36.8186 -78.7883 179° South 285 328 26,000 -639 Descending Washington Center
Wed 12:55:17 PM 36.7433 -78.7931 183° South 298 343 25,100 -1,240 Descending Washington Center
Wed 12:56:17 PM 36.6575 -78.8103 189° South 310 357 23,500 -1,846 Descending Washington Center
Wed 12:57:14 PM 36.5750 -78.8483 200° South 316 364 21,500 -2,017 Descending Washington Center
Wed 12:58:16 PM 36.4908 -78.8756 195° South 321 369 19,500 -1,756 Descending Washington Center
Wed 12:59:17 PM 36.4128 -78.9008 195° South 315 362 17,900 -1,736 Descending Washington Center
Wed 01:00:17 PM 36.3286 -78.9256 193° South 292 336 16,000 -958 Descending Washington Center
Wed 01:01:16 PM 36.2592 -78.9483 195° South 287 330 16,000  Level Washington Center
Wed 01:02:17 PM 36.1772 -78.9758 195° South 288 331 16,000  Level Washington Center
Wed 01:03:15 PM 36.1075 -78.9986 195° South 283 326 16,000 -458 Level Washington Center
Wed 01:04:15 PM 36.0317 -79.0236 195° South 283 326 15,100 -1,245 Descending Washington Center
Wed 01:05:01 PM 35.9622 -79.0436 193° South 286 329 13,800 -1,248 Descending Washington Center
Wed 01:05:56 PM 35.8969 -79.0714 199° South 277 319 13,000 -470 Descending Washington Center
Wed 01:06:56 PM 35.8289 -79.1119 206° Southwest 280 322 12,900 -793 Descending Washington Center
Wed 01:07:57 PM 35.7569 -79.1472 202° Southwest 273 314 11,400 -1,447 Descending Washington Center
Wed 01:09:17 PM 35.6908 -79.1956 211° Southwest 262 302 9,500 -1,671 Descending Washington Center
Wed 01:10:17 PM 35.6272 -79.2283 203° Southwest 227 261 7,500 -1,487 Descending Washington Center
Wed 01:11:14 PM 35.5789 -79.2389 190° South 204 235 6,600 -864 Descending Washington Center
Wed 01:12:15 PM 35.5239 -79.2594 197° South 209 241 5,800 -836 Descending Washington Center
Wed 01:13:16 PM 35.4572 -79.2614 181° South 216 249 4,900 -1,041 Descending Washington Center
Wed 01:14:16 PM 35.3986 -79.2614 180° South 223 257 3,700 -893 Descending Washington Center
Wed 01:15:17 PM 35.3381 -79.2661 184° South 214 246 3,100 4,185 Descending Washington Center
Wed 01:16:15 PM 35.2794 -79.2686 182° South 214 246 12,000 4,487 Climbing Washington Center
Wed 01:17:16 PM 35.2231 -79.2736 184° South 214 246 12,000  Level Washington Center

Login

Don't have an account? Register now (free) for customized features, flight alerts, and more!